createdAt,value
2018-11-05T00:02:34.129Z,74.80
2018-11-05T00:05:14.683Z,74.90
2018-11-05T00:07:56.044Z,75.30
2018-11-05T00:10:36.492Z,75.60
2018-11-05T00:13:16.873Z,76.40
2018-11-05T00:15:57.352Z,77.10
2018-11-05T00:18:37.820Z,77.40
2018-11-05T00:21:19.164Z,77.60
2018-11-05T00:23:59.584Z,77.60
2018-11-05T00:26:40.024Z,77.60
2018-11-05T00:29:21.228Z,77.50
2018-11-05T00:32:02.192Z,77.80
2018-11-05T00:34:42.763Z,78.00
2018-11-05T00:37:23.184Z,78.10
2018-11-05T00:40:03.617Z,78.70
2018-11-05T00:42:44.823Z,78.90
2018-11-05T00:45:25.550Z,79.40
2018-11-05T00:48:06.272Z,79.50
2018-11-05T00:50:46.764Z,79.80
2018-11-05T00:53:27.407Z,79.90
2018-11-05T00:56:07.854Z,80.10
2018-11-05T00:58:48.549Z,80.10
2018-11-05T01:01:29.903Z,80.00
2018-11-05T01:04:11.064Z,80.80
2018-11-05T01:06:51.996Z,79.80
2018-11-05T01:09:32.550Z,79.90
2018-11-05T01:12:12.939Z,79.90
2018-11-05T01:14:53.623Z,80.00
2018-11-05T01:17:35.078Z,79.90
2018-11-05T01:20:16.079Z,80.20
2018-11-05T01:22:57.037Z,80.40
2018-11-05T01:25:37.596Z,80.70
2018-11-05T01:28:18.088Z,80.90
2018-11-05T01:30:58.647Z,81.10
2018-11-05T01:33:39.196Z,81.30
2018-11-05T01:36:20.527Z,81.40
2018-11-05T01:39:01.237Z,81.30
2018-11-05T01:41:41.759Z,81.20
2018-11-05T01:44:22.198Z,81.10
2018-11-05T01:47:02.742Z,81.10
2018-11-05T01:49:43.476Z,81.00
2018-11-05T01:52:23.975Z,81.10
2018-11-05T01:55:05.400Z,81.00
2018-11-05T01:57:45.889Z,81.10
2018-11-05T02:00:26.316Z,81.20
2018-11-05T02:03:07.036Z,81.20
2018-11-05T02:05:47.835Z,81.10
2018-11-05T02:08:28.284Z,81.00
2018-11-05T02:11:08.756Z,80.90
2018-11-05T02:13:49.732Z,80.80
2018-11-05T02:16:30.817Z,80.80
2018-11-05T02:19:11.244Z,80.80
2018-11-05T02:21:51.799Z,80.90
2018-11-05T02:24:32.236Z,80.80
2018-11-05T02:27:12.814Z,80.90
2018-11-05T02:29:54.153Z,81.00
2018-11-05T02:32:34.714Z,81.20
2018-11-05T02:35:15.919Z,81.40
2018-11-05T02:37:56.908Z,81.40
2018-11-05T02:40:37.444Z,81.40
2018-11-05T02:43:17.948Z,81.50
2018-11-05T02:45:58.578Z,81.50
2018-11-05T02:48:39.227Z,81.50
2018-11-05T02:51:19.677Z,81.50
2018-11-05T02:54:00.160Z,81.40
2018-11-05T02:56:40.675Z,81.40
2018-11-05T02:59:22.087Z,81.30
2018-11-05T03:02:02.663Z,81.20
2018-11-05T03:04:43.183Z,81.20
2018-11-05T03:07:23.904Z,81.20
2018-11-05T03:10:04.353Z,81.50
2018-11-05T03:12:45.813Z,81.70
2018-11-05T03:15:26.659Z,82.10
2018-11-05T03:18:08.033Z,82.60
2018-11-05T03:20:48.435Z,83.00
2018-11-05T03:23:29.822Z,83.20
2018-11-05T03:26:10.381Z,83.20
2018-11-05T03:28:50.983Z,83.30
2018-11-05T03:31:32.270Z,83.40
2018-11-05T03:34:13.179Z,83.50
2018-11-05T03:36:54.221Z,83.70
2018-11-05T03:39:34.779Z,83.70
2018-11-05T03:42:15.284Z,83.70
2018-11-05T03:44:55.861Z,83.60
2018-11-05T03:47:36.440Z,83.50
2018-11-05T03:50:17.410Z,83.50
2018-11-05T03:52:59.015Z,83.70
2018-11-05T03:55:39.924Z,83.70
2018-11-05T03:58:20.506Z,83.70
2018-11-05T04:01:01.039Z,83.70
2018-11-05T04:03:42.216Z,83.90
2018-11-05T04:06:23.097Z,84.00
2018-11-05T04:09:05.227Z,84.00
2018-11-05T04:11:46.144Z,84.10
2018-11-05T04:14:26.684Z,84.10
2018-11-05T04:17:08.237Z,84.30
2018-11-05T04:19:49.547Z,84.50
2018-11-05T04:22:30.243Z,84.70
2018-11-05T04:25:11.664Z,84.70
2018-11-05T04:27:52.239Z,85.10
2018-11-05T04:30:32.771Z,85.20
2018-11-05T04:33:13.456Z,85.50
2018-11-05T04:35:54.088Z,85.70
2018-11-05T04:38:34.758Z,85.70
2018-11-05T04:41:15.363Z,85.80
2018-11-05T04:43:56.072Z,85.80
2018-11-05T04:46:36.559Z,85.80
2018-11-05T04:49:17.019Z,85.90
2018-11-05T04:51:57.715Z,85.90
2018-11-05T04:54:38.157Z,86.10
2018-11-05T04:57:19.508Z,86.20
2018-11-05T05:00:04.220Z,86.30
2018-11-05T05:02:45.556Z,86.60
2018-11-05T05:05:26.973Z,86.80
2018-11-05T05:08:07.623Z,86.80
2018-11-05T05:10:48.118Z,86.70
2018-11-05T05:13:28.633Z,86.60
2018-11-05T05:16:10.069Z,86.90
2018-11-05T05:18:50.512Z,87.00
2018-11-05T05:21:31.075Z,87.20
2018-11-05T05:24:11.575Z,87.10
2018-11-05T05:26:51.988Z,87.20
2018-11-05T05:29:32.559Z,87.30
2018-11-05T05:32:13.171Z,87.60
2018-11-05T05:34:53.751Z,87.70
2018-11-05T05:37:34.382Z,87.80
2018-11-05T05:40:15.284Z,87.60
2018-11-05T05:42:55.971Z,87.60
2018-11-05T05:45:36.752Z,87.70
2018-11-05T05:48:17.243Z,88.00
2018-11-05T05:50:58.626Z,88.10
2018-11-05T05:53:39.455Z,88.10
2018-11-05T05:56:20.823Z,88.00
2018-11-05T05:59:01.452Z,88.60
2018-11-05T06:01:41.955Z,88.50
2018-11-05T06:04:22.597Z,88.50
2018-11-05T06:07:04.118Z,88.50
2018-11-05T06:09:45.484Z,88.50
2018-11-05T06:12:26.148Z,88.70
2018-11-05T06:15:06.560Z,88.70
2018-11-05T06:17:47.073Z,88.80
2018-11-05T06:20:28.444Z,89.00
2018-11-05T06:23:09.032Z,88.90
2018-11-05T06:25:49.481Z,89.00
2018-11-05T06:28:30.076Z,89.20
2018-11-05T06:31:11.444Z,89.70
2018-11-05T06:33:52.113Z,89.80
2018-11-05T06:36:32.549Z,89.80
2018-11-05T06:39:13.962Z,89.80
2018-11-05T06:41:54.559Z,90.00
2018-11-05T06:44:34.928Z,90.00
2018-11-05T06:47:16.264Z,89.90
2018-11-05T06:49:56.832Z,89.80
2018-11-05T06:52:37.469Z,89.70
2018-11-05T06:55:18.012Z,89.60
2018-11-05T06:57:58.708Z,89.60
2018-11-05T07:00:39.212Z,89.80
2018-11-05T07:03:19.820Z,89.90
2018-11-05T07:06:00.484Z,90.10
2018-11-05T07:08:41.005Z,90.10
2018-11-05T07:11:21.499Z,89.80
2018-11-05T07:14:02.012Z,90.10
2018-11-05T07:16:42.552Z,90.10
2018-11-05T07:19:24.022Z,89.80
2018-11-05T07:22:05.440Z,89.20
2018-11-05T07:24:45.872Z,87.70
2018-11-05T07:27:26.479Z,87.30
2018-11-05T07:30:06.925Z,86.50
2018-11-05T07:32:48.082Z,86.50
2018-11-05T07:35:28.956Z,85.50
2018-11-05T07:38:10.469Z,85.00
2018-11-05T07:40:51.029Z,84.70
2018-11-05T07:43:31.588Z,84.00
2018-11-05T07:46:12.811Z,83.80
2018-11-05T07:48:53.801Z,83.80
2018-11-05T07:51:34.905Z,84.30
2018-11-05T07:54:15.785Z,84.80
2018-11-05T07:56:56.353Z,85.10
2018-11-05T07:59:37.804Z,85.10
2018-11-05T08:02:19.099Z,85.30
2018-11-05T08:04:59.784Z,85.30
2018-11-05T08:07:40.653Z,85.40
2018-11-05T08:10:21.940Z,85.60
2018-11-05T08:13:03.343Z,85.60
2018-11-05T08:15:43.817Z,85.20
2018-11-05T08:18:24.274Z,85.50
2018-11-05T08:21:04.927Z,86.00
2018-11-05T08:23:45.591Z,85.00
2018-11-05T08:26:26.980Z,85.60
2018-11-05T08:29:07.643Z,85.00
2018-11-05T08:31:48.252Z,84.40
2018-11-05T08:34:28.904Z,83.50
2018-11-05T08:37:10.472Z,83.40
2018-11-05T08:39:51.848Z,83.40
2018-11-05T08:42:32.391Z,83.00
2018-11-05T08:45:15.147Z,82.90
2018-11-05T08:47:56.211Z,83.20
2018-11-05T08:50:37.616Z,82.40
2018-11-05T08:53:18.283Z,82.00
2018-11-05T08:55:59.632Z,81.40
2018-11-05T08:58:41.082Z,81.70
2018-11-05T09:01:22.684Z,81.20
2018-11-05T09:04:04.012Z,81.40
2018-11-05T09:06:45.384Z,81.30
2018-11-05T09:09:26.018Z,81.10
2018-11-05T09:12:07.452Z,81.00
2018-11-05T09:14:48.733Z,80.70
2018-11-05T09:17:29.345Z,80.20
2018-11-05T09:20:11.954Z,80.70
2018-11-05T09:22:53.531Z,81.30
2018-11-05T09:25:34.810Z,81.90
2018-11-05T09:28:15.265Z,81.90
2018-11-05T09:30:55.727Z,82.50
2018-11-05T09:33:36.284Z,83.70
2018-11-05T09:36:17.152Z,84.50
2018-11-05T09:38:58.451Z,84.50
2018-11-05T09:41:38.970Z,83.40
2018-11-05T09:44:20.516Z,82.80
2018-11-05T09:47:02.099Z,83.00
2018-11-05T09:49:43.458Z,82.90
2018-11-05T09:52:24.892Z,83.10
2018-11-05T09:55:06.413Z,83.80
2018-11-05T09:57:47.760Z,84.10
2018-11-05T10:00:29.076Z,84.80
2018-11-05T10:03:16.706Z,85.80
2018-11-05T10:05:57.375Z,86.70
2018-11-05T10:08:38.724Z,87.30
2018-11-05T10:11:19.556Z,87.80
2018-11-05T10:14:00.992Z,88.10
2018-11-05T10:16:42.375Z,88.40
2018-11-05T10:19:23.780Z,88.80
2018-11-05T10:22:05.270Z,88.90
2018-11-05T10:24:46.585Z,89.20
2018-11-05T10:27:27.517Z,89.20
2018-11-05T10:30:07.967Z,89.20
2018-11-05T10:32:48.572Z,89.20
2018-11-05T10:35:34.996Z,89.10
2018-11-05T10:38:16.253Z,89.00
2018-11-05T10:40:56.780Z,88.80
2018-11-05T10:43:37.302Z,88.60
2018-11-05T10:46:18.892Z,88.80
2018-11-05T10:49:00.189Z,89.10
2018-11-05T10:51:41.003Z,90.20
2018-11-05T10:54:22.292Z,90.50
2018-11-05T10:57:03.720Z,90.50
2018-11-05T10:59:44.976Z,90.60
2018-11-05T11:02:30.736Z,90.70
2018-11-05T11:05:11.975Z,91.00
2018-11-05T11:07:54.447Z,90.90
